Time;durP1;ratioP1;P1;durP2;ratioP2;P2;SDS_P1;SDS_P2;PMS_P1;PMS_P2;Temp;Humidity;BMP_temperature;BMP_pressure;BME280_temperature;BME280_humidity;BME280_pressure;Samples;Min_cycle;Max_cycle;Signal;HPM_P1;HPM_P2
2023/10/31 00:00:34;;;;;;;;;2.67;2.67;;;;;16.07;100.00;99504.53;2054763;28;46727;-56
2023/10/31 00:01:35;;;;;;;;;1.00;1.00;;;;;16.08;100.00;99499.09;2054453;28;46699;-56
2023/10/31 00:02:35;;;;;;;;;2.00;1.67;;;;;16.09;100.00;99498.13;2054865;28;46294;-57
2023/10/31 00:03:35;;;;;;;;;1.67;1.67;;;;;16.09;100.00;99500.81;2054663;28;46231;-55
2023/10/31 00:04:36;;;;;;;;;1.33;1.33;;;;;16.08;100.00;99499.09;2056693;28;46430;-59
2023/10/31 00:05:36;;;;;;;;;1.67;1.67;;;;;16.09;100.00;99505.28;2062795;28;46615;-55
2023/10/31 00:06:36;;;;;;;;;1.00;1.00;;;;;16.08;100.00;99506.25;2062390;28;45965;-58
2023/10/31 00:07:39;;;;;;;;;4.00;1.00;;;;;16.09;100.00;99505.28;2061985;28;45946;-60
2023/10/31 00:08:40;;;;;;;;;0.75;0.75;;;;;16.08;100.00;99504.44;2062757;28;46752;-54
2023/10/31 00:09:40;;;;;;;;;1.67;1.67;;;;;16.06;100.00;99494.78;2062949;28;45684;-54
2023/10/31 00:10:44;;;;;;;;;0.67;0.67;;;;;16.08;100.00;99499.09;2062677;28;45745;-56
2023/10/31 00:11:45;;;;;;;;;1.25;1.25;;;;;16.08;100.00;99500.91;2062234;28;47128;-58
2023/10/31 00:12:45;;;;;;;;;1.00;1.00;;;;;16.07;100.00;99499.19;2062993;28;46267;-54
2023/10/31 00:13:45;;;;;;;;;1.67;1.67;;;;;16.07;100.00;99502.72;2062676;28;46361;-58
2023/10/31 00:14:46;;;;;;;;;3.00;1.33;;;;;16.08;100.00;99500.91;2062874;28;45517;-59
2023/10/31 00:15:46;;;;;;;;;0.33;0.33;;;;;16.10;100.00;99498.97;2062405;28;46475;-54
2023/10/31 00:16:48;;;;;;;;;0.67;0.67;;;;;16.10;100.00;99501.66;2062653;28;46900;-56
2023/10/31 00:17:48;;;;;;;;;2.75;2.75;;;;;16.09;100.00;99498.13;2062629;28;46826;-58
2023/10/31 00:18:49;;;;;;;;;2.67;1.67;;;;;16.10;100.00;99497.16;2057768;28;45370;-58
2023/10/31 00:19:49;;;;;;;;;2.67;2.67;;;;;16.11;100.00;99498.88;2054618;28;46222;-57
2023/10/31 00:20:49;;;;;;;;;0.67;0.67;;;;;16.10;100.00;99501.66;2062333;28;45959;-59
2023/10/31 00:21:50;;;;;;;;;2.33;2.33;;;;;16.10;100.00;99505.19;2060121;28;46684;-59
2023/10/31 00:22:50;;;;;;;;;2.00;2.00;;;;;16.10;100.00;99494.50;2054544;28;46352;-54
2023/10/31 00:23:50;;;;;;;;;3.00;3.00;;;;;16.11;100.00;99495.34;2060156;28;46717;-58
2023/10/31 00:24:51;;;;;;;;;0.67;0.67;;;;;16.11;100.00;99498.03;2062864;28;46343;-57
2023/10/31 00:25:51;;;;;;;;;1.67;1.67;;;;;16.11;100.00;99500.69;2062747;28;46772;-54
2023/10/31 00:26:51;;;;;;;;;1.67;1.67;;;;;16.10;100.00;99496.31;2062605;28;46331;-60
2023/10/31 00:27:52;;;;;;;;;1.67;1.67;;;;;16.10;100.00;99496.31;2062911;28;46983;-58
2023/10/31 00:28:52;;;;;;;;;3.00;3.00;;;;;16.10;100.00;99499.84;2061732;28;46579;-55
2023/10/31 00:29:52;;;;;;;;;2.33;2.33;;;;;16.11;100.00;99503.38;2062111;28;46909;-57
2023/10/31 00:30:54;;;;;;;;;1.67;1.67;;;;;16.11;100.00;99495.34;2062959;28;45596;-58
2023/10/31 00:31:54;;;;;;;;;1.00;1.00;;;;;16.11;100.00;99504.22;2063016;28;46409;-55
2023/10/31 00:32:54;;;;;;;;;3.67;3.00;;;;;16.10;100.00;99505.19;2062732;28;46037;-59
2023/10/31 00:33:55;;;;;;;;;2.33;0.67;;;;;16.11;100.00;99495.34;2061959;28;46292;-55
2023/10/31 00:34:55;;;;;;;;;2.00;2.00;;;;;16.12;100.00;99499.75;2061839;28;46642;-58
2023/10/31 00:35:56;;;;;;;;;3.00;3.00;;;;;16.11;100.00;99498.03;2062914;28;46693;-59
2023/10/31 00:36:56;;;;;;;;;1.33;1.33;;;;;16.06;100.00;99495.66;2062117;28;46453;-58
2023/10/31 00:37:56;;;;;;;;;2.67;2.00;;;;;16.07;100.00;99504.53;2062815;28;46472;-56
2023/10/31 00:38:57;;;;;;;;;3.33;2.33;;;;;16.09;100.00;99508.84;2062556;28;46668;-55
2023/10/31 00:39:57;;;;;;;;;2.67;2.67;;;;;16.03;100.00;99501.22;2087880;28;46881;-56
2023/10/31 00:40:57;;;;;;;;;2.00;0.67;;;;;16.03;100.00;99505.69;2103517;28;46359;-57
2023/10/31 00:41:58;;;;;;;;;3.00;2.00;;;;;16.03;100.00;99506.56;2062109;28;46910;-59
2023/10/31 00:42:58;;;;;;;;;1.00;1.00;;;;;16.05;100.00;99507.31;2061606;28;46148;-55
2023/10/31 00:43:59;;;;;;;;;1.67;1.67;;;;;16.06;100.00;99502.81;2062307;28;46456;-56
2023/10/31 00:44:59;;;;;;;;;0.00;0.00;;;;;16.07;100.00;99508.06;2061985;28;46873;-56
2023/10/31 00:46:01;;;;;;;;;0.00;0.00;;;;;16.05;100.00;99510.00;2062352;28;46623;-58
2023/10/31 00:47:01;;;;;;;;;2.75;0.50;;;;;16.05;100.00;99515.34;2062642;28;46817;-56
2023/10/31 00:48:02;;;;;;;;;1.67;1.67;;;;;16.09;100.00;99511.50;2062734;28;46472;-59
2023/10/31 00:49:03;;;;;;;;;2.00;2.00;;;;;16.10;100.00;99512.38;2062577;28;46353;-57
2023/10/31 00:50:04;;;;;;;;;1.00;1.00;;;;;16.11;100.00;99511.41;2062281;28;46328;-57
2023/10/31 00:51:04;;;;;;;;;2.00;1.67;;;;;16.08;100.00;99514.28;2062681;28;45924;-58
2023/10/31 00:52:05;;;;;;;;;1.67;1.67;;;;;16.10;100.00;99509.69;2062759;28;46404;-59
2023/10/31 00:53:06;;;;;;;;;1.67;1.00;;;;;16.12;100.00;99513.13;2061595;28;46897;-58
2023/10/31 00:54:06;;;;;;;;;0.75;0.25;;;;;16.12;100.00;99510.44;2061888;28;46348;-58
2023/10/31 00:55:07;;;;;;;;;1.67;1.67;;;;;16.11;100.00;99506.06;2061711;28;45661;-59
2023/10/31 00:56:07;;;;;;;;;3.33;1.67;;;;;16.11;100.00;99506.91;2061945;28;46791;-56
2023/10/31 00:57:08;;;;;;;;;2.00;2.00;;;;;16.12;100.00;99507.78;2062844;28;46309;-58
2023/10/31 00:58:08;;;;;;;;;2.33;2.00;;;;;16.13;100.00;99517.50;2062573;28;46595;-57
2023/10/31 00:59:08;;;;;;;;;2.00;2.00;;;;;16.10;100.00;99510.53;2062361;28;46591;-58
2023/10/31 01:00:09;;;;;;;;;1.00;1.00;;;;;16.09;100.00;99511.50;2062357;28;46187;-60
2023/10/31 01:01:10;;;;;;;;;6.25;5.00;;;;;16.11;100.00;99519.44;2062082;28;46724;-56
2023/10/31 01:02:10;;;;;;;;;10.67;9.67;;;;;16.12;100.00;99515.78;2062639;28;45854;-59
2023/10/31 01:03:10;;;;;;;;;6.67;6.67;;;;;16.09;100.00;99510.66;2062773;28;46550;-58
2023/10/31 01:04:11;;;;;;;;;6.67;5.33;;;;;16.10;100.00;99520.41;2062184;28;46605;-61
2023/10/31 01:05:11;;;;;;;;;5.33;4.67;;;;;16.10;100.00;99510.53;2062479;28;46476;-58
2023/10/31 01:06:11;;;;;;;;;5.33;4.33;;;;;16.10;100.00;99515.91;2055239;28;46297;-60
2023/10/31 01:07:14;;;;;;;;;1.33;1.33;;;;;16.10;100.00;99515.91;2054229;28;45837;-58
2023/10/31 01:08:15;;;;;;;;;3.25;3.25;;;;;16.10;100.00;99517.72;2054541;28;45491;-59
2023/10/31 01:09:15;;;;;;;;;3.33;3.33;;;;;16.09;100.00;99514.19;2059992;28;46647;-57
2023/10/31 01:10:15;;;;;;;;;3.00;3.00;;;;;16.10;100.00;99515.03;2061878;28;46629;-59
2023/10/31 01:11:16;;;;;;;;;4.00;4.00;;;;;16.10;100.00;99510.53;2103575;28;46320;-56
2023/10/31 01:12:16;;;;;;;;;5.67;5.67;;;;;16.09;100.00;99522.22;2103840;28;46233;-55
2023/10/31 01:13:16;;;;;;;;;8.67;6.00;;;;;16.09;100.00;99516.84;2061958;28;46038;-58
2023/10/31 01:14:17;;;;;;;;;16.00;14.33;;;;;16.06;100.00;99525.09;2061761;28;46231;-59
2023/10/31 01:15:17;;;;;;;;;35.25;31.00;;;;;16.05;100.00;99522.50;2062345;28;46544;-56
2023/10/31 01:16:17;;;;;;;;;49.00;40.25;;;;;16.06;100.00;99532.25;2062186;28;46656;-58
2023/10/31 01:17:18;;;;;;;;;54.75;44.75;;;;;16.06;100.00;99524.22;2062401;28;46670;-58
2023/10/31 01:18:18;;;;;;;;;42.25;34.75;;;;;16.09;100.00;99526.72;2062329;28;46362;-56
2023/10/31 01:19:18;;;;;;;;;59.75;47.50;;;;;16.04;100.00;99518.97;2062009;28;46451;-56
2023/10/31 01:20:19;;;;;;;;;62.50;50.25;;;;;16.08;100.00;99528.53;2058790;28;46284;-58
2023/10/31 01:21:19;;;;;;;;;136.67;131.33;;;;;16.08;100.00;99523.16;2054450;28;46723;-55
2023/10/31 01:22:19;;;;;;;;;78.75;70.25;;;;;16.09;100.00;99530.25;2054325;28;46513;-59
2023/10/31 01:23:19;;;;;;;;;92.75;89.25;;;;;16.10;100.00;99528.41;2056512;28;46167;-58
2023/10/31 01:24:20;;;;;;;;;51.75;41.50;;;;;16.08;100.00;99531.19;2063721;28;46667;-55
2023/10/31 01:25:20;;;;;;;;;77.75;68.50;;;;;16.08;100.00;99523.16;2063437;28;46678;-57
2023/10/31 01:26:20;;;;;;;;;67.50;54.50;;;;;16.09;100.00;99526.72;2063026;28;46785;-59
2023/10/31 01:27:21;;;;;;;;;121.67;115.00;;;;;16.09;100.00;99521.34;2063001;28;46845;-56
2023/10/31 01:28:21;;;;;;;;;100.33;91.00;;;;;16.10;100.00;99526.59;2063359;28;46478;-52
2023/10/31 01:29:21;;;;;;;;;151.00;141.75;;;;;16.09;100.00;99527.56;2063703;28;46217;-58
2023/10/31 01:30:22;;;;;;;;;176.25;159.75;;;;;16.09;100.00;99527.56;2063760;28;46548;-59
2023/10/31 01:31:22;;;;;;;;;77.75;71.00;;;;;16.10;100.00;99525.75;2063271;28;46456;-58
2023/10/31 01:32:23;;;;;;;;;79.00;75.25;;;;;16.08;100.00;99519.63;2063932;28;46030;-59
2023/10/31 01:33:23;;;;;;;;;141.00;129.00;;;;;16.09;100.00;99526.72;2063348;28;46395;-54
2023/10/31 01:34:23;;;;;;;;;121.67;113.00;;;;;16.07;100.00;99521.44;2063441;28;46862;-58
2023/10/31 01:35:24;;;;;;;;;140.67;136.33;;;;;16.09;100.00;99521.34;2062650;28;46277;-58
2023/10/31 01:36:26;;;;;;;;;116.67;112.33;;;;;16.11;100.00;99530.13;2062928;28;46353;-57
2023/10/31 01:37:27;;;;;;;;;123.67;114.67;;;;;16.11;100.00;99519.44;2063090;28;46365;-59
2023/10/31 01:38:27;;;;;;;;;64.50;51.25;;;;;16.09;100.00;99518.69;2063400;28;46763;-56
2023/10/31 01:39:27;;;;;;;;;46.75;38.50;;;;;16.06;100.00;99519.72;2063280;28;46249;-60
2023/10/31 01:40:28;;;;;;;;;116.33;109.67;;;;;16.05;100.00;99522.50;2063390;28;46562;-58
2023/10/31 01:41:28;;;;;;;;;77.50;69.50;;;;;16.04;100.00;99532.34;2104328;28;46030;-56
2023/10/31 01:42:28;;;;;;;;;151.67;140.33;;;;;16.04;100.00;99526.16;2105313;28;45541;-58
2023/10/31 01:43:30;;;;;;;;;135.33;126.67;;;;;16.04;100.00;99524.34;2063268;28;46412;-55
2023/10/31 01:44:31;;;;;;;;;102.50;96.50;;;;;16.04;100.00;99535.03;2060774;28;46730;-58
2023/10/31 01:45:31;;;;;;;;;154.75;146.75;;;;;16.03;100.00;99532.47;2055338;28;46454;-55
2023/10/31 01:46:31;;;;;;;;;149.75;138.75;;;;;16.02;100.00;99531.59;2055530;28;46844;-58
2023/10/31 01:47:32;;;;;;;;;64.25;52.25;;;;;16.03;100.00;99535.13;2055201;28;46452;-57
2023/10/31 01:48:33;;;;;;;;;89.25;85.25;;;;;16.01;100.00;99535.25;2055323;28;46219;-59
2023/10/31 01:49:36;;;;;;;;;93.50;87.00;;;;;16.02;100.00;99539.63;2055051;28;46407;-58
2023/10/31 01:50:36;;;;;;;;;148.67;136.67;;;;;16.02;100.00;99536.09;2055241;28;46542;-58
2023/10/31 01:51:36;;;;;;;;;155.50;144.50;;;;;16.03;100.00;99535.13;2055171;28;46586;-56
2023/10/31 01:52:37;;;;;;;;;200.50;180.00;;;;;16.02;100.00;99539.63;2055163;28;46565;-56
2023/10/31 01:53:38;;;;;;;;;146.00;134.00;;;;;16.02;100.00;99544.97;2055403;28;46043;-59
2023/10/31 01:54:38;;;;;;;;;180.25;169.00;;;;;16.01;100.00;99540.59;2061136;28;46065;-58
2023/10/31 01:55:39;;;;;;;;;166.67;151.00;;;;;16.00;100.00;99536.16;2063221;28;46008;-56
2023/10/31 01:56:40;;;;;;;;;122.00;114.00;;;;;15.99;100.00;99552.31;2063090;28;46678;-61
2023/10/31 01:57:44;;;;;;;;;101.75;93.50;;;;;16.00;100.00;99549.53;2063371;28;46494;-57
2023/10/31 01:58:46;;;;;;;;;78.25;74.75;;;;;16.00;100.00;99551.34;2062998;28;46583;-57
2023/10/31 01:59:47;;;;;;;;;108.00;99.33;;;;;15.97;100.00;99551.56;2063118;28;46572;-56
2023/10/31 02:00:47;;;;;;;;;94.75;89.00;;;;;15.98;100.00;99558.63;2063192;28;46465;-55
2023/10/31 02:01:49;;;;;;;;;43.75;35.25;;;;;15.96;100.00;99558.72;2063677;28;45521;-59
2023/10/31 02:02:51;;;;;;;;;62.60;49.60;;;;;15.96;100.00;99552.50;2056998;28;46269;-59
2023/10/31 02:03:53;;;;;;;;;72.00;59.20;;;;;15.96;100.00;99565.91;2056787;28;46445;-56
2023/10/31 02:04:53;;;;;;;;;61.80;49.60;;;;;15.95;100.00;99558.81;2063914;28;46430;-57
2023/10/31 02:05:55;;;;;;;;;44.75;37.75;;;;;15.94;100.00;99562.47;2063192;28;45248;-55
2023/10/31 02:06:55;;;;;;;;;30.60;26.80;;;;;15.91;100.00;99566.19;2063563;28;46416;-57
2023/10/31 02:07:56;;;;;;;;;18.33;17.00;;;;;15.89;100.00;99566.28;2063392;28;46809;-57
2023/10/31 02:08:57;;;;;;;;;14.00;12.33;;;;;15.83;100.00;99557.78;2063316;28;46494;-57
2023/10/31 02:09:57;;;;;;;;;11.50;8.75;;;;;15.85;100.00;99562.06;2063571;28;46799;-55
2023/10/31 02:10:57;;;;;;;;;10.00;10.00;;;;;15.85;100.00;99561.19;2062917;28;46306;-57
2023/10/31 02:11:58;;;;;;;;;13.00;10.00;;;;;15.85;100.00;99567.41;2063439;28;46554;-60
2023/10/31 02:12:58;;;;;;;;;12.67;9.00;;;;;15.84;100.00;99564.84;2062621;28;46997;-57
2023/10/31 02:13:59;;;;;;;;;8.00;8.00;;;;;15.83;100.00;99566.66;2062678;28;46480;-54
2023/10/31 02:14:59;;;;;;;;;9.00;9.00;;;;;15.84;100.00;99560.34;2062672;28;46347;-55
2023/10/31 02:15:59;;;;;;;;;5.00;5.00;;;;;15.83;100.00;99566.66;2062956;28;45074;-57
2023/10/31 02:17:00;;;;;;;;;6.00;5.33;;;;;15.81;100.00;99560.53;2063138;28;46284;-59
2023/10/31 02:18:00;;;;;;;;;10.33;9.33;;;;;15.82;100.00;99564.06;2062906;28;46158;-58
2023/10/31 02:19:00;;;;;;;;;33.25;30.75;;;;;15.80;100.00;99566.84;2054174;28;46050;-58
2023/10/31 02:20:01;;;;;;;;;34.25;29.25;;;;;15.80;100.00;99572.19;2063218;28;45535;-57
2023/10/31 02:21:02;;;;;;;;;72.50;61.00;;;;;15.79;100.00;99573.16;2063056;28;46636;-58
2023/10/31 02:22:02;;;;;;;;;51.75;42.00;;;;;15.79;100.00;99569.63;2063067;28;46205;-58
2023/10/31 02:23:03;;;;;;;;;47.75;40.00;;;;;15.79;100.00;99572.28;2063277;28;46668;-58
2023/10/31 02:24:04;;;;;;;;;28.20;24.00;;;;;15.77;100.00;99569.72;2057084;28;46354;-61
2023/10/31 02:25:15;;;;;;;;;48.00;38.75;;;;;15.77;100.00;99566.19;2054826;28;46198;-58
2023/10/31 02:26:16;;;;;;;;;67.60;54.40;;;;;15.76;100.00;99570.69;2055290;28;46567;-57
2023/10/31 02:27:16;;;;;;;;;68.50;57.00;;;;;15.78;100.00;99581.28;2054269;28;46343;-56
2023/10/31 02:28:16;;;;;;;;;42.50;36.25;;;;;15.78;100.00;99573.25;2055780;28;46187;-60
2023/10/31 02:29:17;;;;;;;;;54.00;45.00;;;;;15.77;100.00;99572.41;2063437;28;46178;-56
2023/10/31 02:30:17;;;;;;;;;23.75;22.00;;;;;15.78;100.00;99571.44;2062579;28;46762;-55
2023/10/31 02:31:18;;;;;;;;;16.00;13.00;;;;;15.77;100.00;99571.53;2062746;28;46350;-57
2023/10/31 02:32:19;;;;;;;;;10.75;8.75;;;;;15.76;100.00;99576.03;2070596;28;46511;-55
2023/10/31 02:33:19;;;;;;;;;16.00;14.00;;;;;15.75;100.00;99573.41;2070230;28;46320;-56
2023/10/31 02:34:19;;;;;;;;;11.67;10.67;;;;;15.75;100.00;99576.09;2054082;28;46265;-56
2023/10/31 02:35:20;;;;;;;;;13.33;13.33;;;;;15.75;100.00;99576.09;2057042;28;46270;-56
2023/10/31 02:36:21;;;;;;;;;6.67;5.00;;;;;15.75;100.00;99581.44;2070595;28;45943;-57
2023/10/31 02:37:21;;;;;;;;;7.00;6.67;;;;;15.72;100.00;99569.13;2070483;28;46549;-57
2023/10/31 02:38:21;;;;;;;;;12.00;12.00;;;;;15.72;100.00;99573.59;2054589;28;46738;-57
2023/10/31 02:39:21;;;;;;;;;13.00;11.00;;;;;15.74;100.00;99575.22;2062438;28;46377;-58
2023/10/31 02:40:22;;;;;;;;;13.33;11.33;;;;;15.75;100.00;99581.44;2056343;28;46321;-55
2023/10/31 02:41:23;;;;;;;;;13.00;12.67;;;;;15.75;100.00;99576.09;2054298;28;46280;-58
2023/10/31 02:42:23;;;;;;;;;11.75;11.75;;;;;15.75;100.00;99574.31;2062565;28;46366;-58
2023/10/31 02:43:23;;;;;;;;;8.33;7.00;;;;;15.77;100.00;99577.75;2062593;28;46321;-59
2023/10/31 02:44:24;;;;;;;;;8.00;6.33;;;;;15.76;100.00;99578.69;2063164;28;46289;-55
2023/10/31 02:45:24;;;;;;;;;5.67;5.67;;;;;15.76;100.00;99569.81;2063332;28;46285;-53
2023/10/31 02:46:24;;;;;;;;;7.67;7.67;;;;;15.76;100.00;99576.03;2063169;28;46400;-56
2023/10/31 02:47:25;;;;;;;;;10.00;8.33;;;;;15.76;100.00;99572.50;2063033;28;46518;-57
2023/10/31 02:48:26;;;;;;;;;7.33;7.00;;;;;15.77;100.00;99576.88;2062450;28;46516;-58
2023/10/31 02:49:26;;;;;;;;;7.75;7.25;;;;;15.77;100.00;99572.41;2062637;28;47492;-57
2023/10/31 02:50:27;;;;;;;;;6.00;6.00;;;;;15.78;100.00;99571.44;2062138;28;46605;-58
2023/10/31 02:51:27;;;;;;;;;5.00;5.00;;;;;15.77;100.00;99567.03;2054529;28;46184;-55
2023/10/31 02:52:27;;;;;;;;;4.33;4.33;;;;;15.76;100.00;99565.31;2062808;28;46409;-58
2023/10/31 02:53:27;;;;;;;;;9.00;9.00;;;;;15.78;100.00;99573.25;2062998;28;46686;-59
2023/10/31 02:54:28;;;;;;;;;7.33;7.33;;;;;15.78;100.00;99578.59;2062782;28;46691;-59
2023/10/31 02:55:28;;;;;;;;;9.00;8.67;;;;;15.73;100.00;99573.50;2055575;28;46330;-57
2023/10/31 02:56:28;;;;;;;;;6.33;6.33;;;;;15.73;100.00;99570.84;2054984;28;46385;-56
2023/10/31 02:57:29;;;;;;;;;12.33;12.33;;;;;15.76;100.00;99569.81;2070382;28;46603;-59
2023/10/31 02:58:29;;;;;;;;;7.00;7.00;;;;;15.76;100.00;99567.16;2070687;28;46772;-55
2023/10/31 02:59:30;;;;;;;;;6.00;6.00;;;;;15.77;100.00;99571.53;2059793;28;46598;-59
2023/10/31 03:00:30;;;;;;;;;4.67;4.67;;;;;15.71;100.00;99562.06;2062567;28;46444;-57
2023/10/31 03:01:31;;;;;;;;;6.67;6.00;;;;;15.70;100.00;99560.34;2062886;28;46401;-56
2023/10/31 03:02:32;;;;;;;;;4.00;4.00;;;;;15.73;100.00;99568.16;2063134;28;46519;-58
2023/10/31 03:03:32;;;;;;;;;5.00;4.33;;;;;15.73;100.00;99569.97;2062932;28;46215;-54
2023/10/31 03:04:33;;;;;;;;;5.67;5.67;;;;;15.74;100.00;99574.38;2058471;28;46292;-58
2023/10/31 03:05:33;;;;;;;;;4.00;4.00;;;;;15.70;100.00;99567.50;2062614;28;46369;-56
2023/10/31 03:06:33;;;;;;;;;7.67;5.67;;;;;15.67;100.00;99565.88;2062433;28;46818;-57
2023/10/31 03:07:34;;;;;;;;;6.00;5.67;;;;;15.65;100.00;99566.94;2062284;28;46095;-50
2023/10/31 03:08:34;;;;;;;;;5.00;5.00;;;;;15.63;100.00;99574.19;2062417;28;46574;-53
2023/10/31 03:09:34;;;;;;;;;2.00;1.33;;;;;15.64;100.00;99575.91;2062543;28;46583;-58
2023/10/31 03:10:34;;;;;;;;;5.33;5.33;;;;;15.62;100.00;99577.78;2062188;28;46192;-58
2023/10/31 03:11:36;;;;;;;;;5.00;5.00;;;;;15.60;100.00;99568.06;2063068;28;46262;-52
2023/10/31 03:12:36;;;;;;;;;3.75;3.75;;;;;15.63;100.00;99571.53;2062833;28;46766;-56
2023/10/31 03:13:36;;;;;;;;;6.00;4.67;;;;;15.62;100.00;99567.09;2062751;28;46298;-58
2023/10/31 03:14:37;;;;;;;;;6.00;5.67;;;;;15.63;100.00;99569.69;2054861;28;46527;-54
2023/10/31 03:15:37;;;;;;;;;4.33;4.00;;;;;15.65;100.00;99569.59;2054939;28;46091;-56
2023/10/31 03:16:38;;;;;;;;;5.33;5.33;;;;;15.65;100.00;99565.13;2070235;28;46365;-57
2023/10/31 03:17:39;;;;;;;;;5.00;5.00;;;;;15.64;100.00;99568.75;2070481;28;46361;-59
2023/10/31 03:18:39;;;;;;;;;4.00;4.00;;;;;15.65;100.00;99569.59;2055056;28;46343;-58
2023/10/31 03:19:40;;;;;;;;;6.00;6.00;;;;;15.63;100.00;99577.72;2054527;28;46284;-59
2023/10/31 03:20:40;;;;;;;;;5.00;5.00;;;;;15.63;100.00;99584.88;2054647;28;45620;-57
2023/10/31 03:21:41;;;;;;;;;6.00;6.00;;;;;15.60;100.00;99581.41;2054514;28;44955;-58
2023/10/31 03:22:41;;;;;;;;;5.00;5.00;;;;;15.59;100.00;99577.03;2054742;28;45612;-56
2023/10/31 03:23:48;;;;;;;;;4.00;4.00;;;;;15.60;100.00;99585.91;2054881;28;46587;-55
2023/10/31 03:24:48;;;;;;;;;6.00;6.00;;;;;15.58;100.00;99585.97;2070288;28;46359;-57
2023/10/31 03:25:49;;;;;;;;;5.00;5.00;;;;;15.59;100.00;99589.50;2069126;28;47045;-59
2023/10/31 03:26:49;;;;;;;;;5.33;5.00;;;;;15.55;100.00;99586.16;2054694;28;46635;-59
2023/10/31 03:27:50;;;;;;;;;8.00;8.00;;;;;15.55;100.00;99587.97;2070555;28;46335;-57
2023/10/31 03:28:50;;;;;;;;;8.00;6.67;;;;;15.54;100.00;99595.16;2070218;28;47044;-56
2023/10/31 03:29:50;;;;;;;;;6.67;6.00;;;;;15.54;100.00;99589.78;2054722;28;46549;-58
2023/10/31 03:30:51;;;;;;;;;5.00;4.00;;;;;15.54;100.00;99583.59;2055132;28;46035;-59
2023/10/31 03:31:51;;;;;;;;;7.00;6.33;;;;;15.56;100.00;99595.91;2055093;28;46034;-59
2023/10/31 03:32:52;;;;;;;;;6.67;5.67;;;;;15.57;100.00;99594.94;2054545;28;46565;-57
2023/10/31 03:33:53;;;;;;;;;7.67;5.00;;;;;15.57;100.00;99600.31;2054902;28;46580;-60
2023/10/31 03:34:54;;;;;;;;;6.25;6.25;;;;;15.57;100.00;99597.63;2054759;28;46804;-55
2023/10/31 03:35:54;;;;;;;;;8.00;7.00;;;;;15.61;100.00;99606.34;2054975;28;46259;-53
2023/10/31 03:36:54;;;;;;;;;5.67;5.67;;;;;15.63;100.00;99604.47;2062146;28;46835;-54
2023/10/31 03:37:54;;;;;;;;;6.33;6.33;;;;;15.64;100.00;99608.88;2062836;28;45784;-54
2023/10/31 03:38:55;;;;;;;;;8.67;7.67;;;;;15.65;100.00;99607.06;2054563;28;46647;-56
2023/10/31 03:39:55;;;;;;;;;8.00;8.00;;;;;15.66;100.00;99609.63;2062081;28;46597;-57
2023/10/31 03:40:55;;;;;;;;;7.00;7.00;;;;;15.66;100.00;99609.63;2062824;28;46765;-59
2023/10/31 03:41:56;;;;;;;;;6.00;6.00;;;;;15.67;100.00;99603.31;2062313;28;46394;-58
2023/10/31 03:42:56;;;;;;;;;6.00;6.00;;;;;15.68;100.00;99606.84;2062146;28;46293;-56
2023/10/31 03:43:56;;;;;;;;;6.33;6.00;;;;;15.69;100.00;99606.75;2063229;28;46024;-57
2023/10/31 03:44:57;;;;;;;;;7.33;7.33;;;;;15.68;100.00;99602.38;2063055;28;46873;-58
2023/10/31 03:45:57;;;;;;;;;3.33;3.33;;;;;15.67;100.00;99610.50;2062442;28;45919;-58
2023/10/31 03:46:57;;;;;;;;;7.00;7.00;;;;;15.67;100.00;99605.13;2062898;28;46869;-59
2023/10/31 03:47:58;;;;;;;;;6.33;6.33;;;;;15.63;100.00;99600.94;2062841;28;46493;-59
2023/10/31 03:48:58;;;;;;;;;7.33;6.33;;;;;15.60;100.00;99597.47;2062764;28;46620;-57
2023/10/31 03:49:59;;;;;;;;;7.67;7.33;;;;;15.63;100.00;99604.47;2062358;28;46901;-57
2023/10/31 03:50:59;;;;;;;;;5.00;5.00;;;;;15.63;100.00;99591.09;2053937;28;46541;-57
2023/10/31 03:51:59;;;;;;;;;5.33;5.33;;;;;15.63;100.00;99604.47;2070586;28;46725;-59
2023/10/31 03:53:00;;;;;;;;;5.67;5.67;;;;;15.62;100.00;99597.38;2078693;28;46827;-58
2023/10/31 03:54:00;;;;;;;;;8.00;8.00;;;;;15.60;100.00;99597.47;2063194;28;45782;-56
2023/10/31 03:55:00;;;;;;;;;8.33;8.00;;;;;15.59;100.00;99595.75;2062681;28;46686;-58
2023/10/31 03:56:01;;;;;;;;;10.00;8.33;;;;;15.60;100.00;99600.13;2063006;28;46610;-57
2023/10/31 03:57:01;;;;;;;;;7.00;7.00;;;;;15.62;100.00;99599.19;2062791;28;45893;-58
2023/10/31 03:58:01;;;;;;;;;8.00;4.00;;;;;15.61;100.00;99595.66;2056412;28;46119;-59
2023/10/31 03:59:02;;;;;;;;;8.00;8.00;;;;;15.60;100.00;99600.13;2056284;28;46568;-59
2023/10/31 04:00:04;;;;;;;;;8.67;6.33;;;;;15.60;100.00;99596.59;2062639;28;48598;-59
2023/10/31 04:01:04;;;;;;;;;8.25;8.25;;;;;15.59;100.00;99600.22;2062841;28;46535;-58
2023/10/31 04:02:05;;;;;;;;;8.00;7.00;;;;;15.58;100.00;99603.84;2062880;28;46411;-57
2023/10/31 04:03:05;;;;;;;;;6.00;6.00;;;;;15.56;100.00;99609.28;2062848;28;46582;-57
2023/10/31 04:04:06;;;;;;;;;8.33;7.00;;;;;15.54;100.00;99611.19;2062689;28;46694;-56
2023/10/31 04:05:07;;;;;;;;;10.33;8.00;;;;;15.53;100.00;99609.47;2062934;28;46444;-60
2023/10/31 04:06:07;;;;;;;;;9.00;7.00;;;;;15.51;100.00;99610.53;2063093;28;45600;-57
2023/10/31 04:07:07;;;;;;;;;6.33;6.00;;;;;15.50;100.00;99617.69;2060682;28;46892;-58
2023/10/31 04:08:08;;;;;;;;;9.00;7.67;;;;;15.49;100.00;99613.25;2054552;28;46725;-60
2023/10/31 04:09:08;;;;;;;;;11.00;9.00;;;;;15.50;100.00;99612.34;2059770;28;46693;-58
2023/10/31 04:10:09;;;;;;;;;7.67;6.67;;;;;15.49;100.00;99615.94;2062470;28;46378;-57
2023/10/31 04:11:09;;;;;;;;;11.33;9.33;;;;;15.47;100.00;99617.84;2063043;28;45531;-56
2023/10/31 04:12:09;;;;;;;;;10.33;10.00;;;;;15.46;100.00;99626.81;2062806;28;46287;-59
2023/10/31 04:13:10;;;;;;;;;8.67;8.67;;;;;15.46;100.00;99626.81;2062552;28;46645;-59
2023/10/31 04:14:10;;;;;;;;;7.33;7.33;;;;;15.48;100.00;99626.72;2063084;28;46866;-56
2023/10/31 04:15:11;;;;;;;;;12.00;11.33;;;;;15.49;100.00;99625.75;2063243;28;45551;-57
2023/10/31 04:16:11;;;;;;;;;8.33;8.33;;;;;15.50;100.00;99623.03;2062691;28;46761;-55
2023/10/31 04:17:12;;;;;;;;;4.00;4.00;;;;;15.51;100.00;99632.78;2062454;28;47217;-58
2023/10/31 04:18:12;;;;;;;;;12.33;9.67;;;;;15.54;100.00;99629.03;2095585;28;46477;-56
2023/10/31 04:19:15;;;;;;;;;10.33;10.33;;;;;15.54;100.00;99639.75;2087193;28;46254;-59
2023/10/31 04:20:15;;;;;;;;;8.00;6.75;;;;;15.55;100.00;99634.31;2058045;28;46780;-57
2023/10/31 04:21:16;;;;;;;;;7.00;5.67;;;;;15.55;100.00;99636.13;2063011;28;46782;-54
2023/10/31 04:22:16;;;;;;;;;7.00;7.00;;;;;15.55;100.00;99638.78;2055807;28;46371;-58
2023/10/31 04:23:16;;;;;;;;;7.67;7.67;;;;;15.55;100.00;99636.13;2056437;28;46894;-58
2023/10/31 04:24:17;;;;;;;;;10.67;7.67;;;;;15.55;100.00;99642.31;2062371;28;46877;-58
2023/10/31 04:25:17;;;;;;;;;6.33;6.33;;;;;15.57;100.00;99642.22;2062838;28;46732;-58
2023/10/31 04:26:17;;;;;;;;;6.00;5.00;;;;;15.57;100.00;99636.88;2062590;28;46466;-58
2023/10/31 04:27:18;;;;;;;;;9.67;9.33;;;;;15.56;100.00;99636.03;2061821;28;46201;-56
2023/10/31 04:28:18;;;;;;;;;4.67;4.67;;;;;15.59;100.00;99643.00;2062242;28;46939;-54
2023/10/31 04:29:19;;;;;;;;;9.67;6.00;;;;;15.58;100.00;99639.47;2062683;28;46298;-59
2023/10/31 04:30:19;;;;;;;;;5.33;5.33;;;;;15.62;100.00;99644.66;2062992;28;46495;-57
2023/10/31 04:31:19;;;;;;;;;5.00;4.33;;;;;15.62;100.00;99634.81;2062785;28;46205;-59
2023/10/31 04:32:20;;;;;;;;;5.00;5.00;;;;;15.63;100.00;99649.94;2062511;28;46161;-54
2023/10/31 04:33:21;;;;;;;;;5.00;5.00;;;;;15.64;100.00;99651.66;2062611;28;46415;-56
2023/10/31 04:34:21;;;;;;;;;4.00;3.00;;;;;15.64;100.00;99650.78;2062185;28;46543;-56
2023/10/31 04:35:21;;;;;;;;;5.33;5.33;;;;;15.65;100.00;99657.88;2062797;28;46354;-59
2023/10/31 04:36:22;;;;;;;;;4.67;4.67;;;;;15.64;100.00;99658.81;2062001;28;46364;-57
2023/10/31 04:37:22;;;;;;;;;5.67;5.67;;;;;15.64;100.00;99654.31;2061927;28;46644;-55
2023/10/31 04:38:22;;;;;;;;;4.33;4.00;;;;;15.64;100.00;99657.00;2062484;28;46844;-57
2023/10/31 04:39:23;;;;;;;;;5.67;4.00;;;;;15.65;100.00;99661.41;2062249;28;46215;-59